sensor_id;sensor_type;location;lat;lon;timestamp;temperature;humidity
65231;DHT22;51813;40.666;16.602;2022-09-19T00:00:53;22.50;42.50
65231;DHT22;51813;40.666;16.602;2022-09-19T00:03:19;22.50;42.30
65231;DHT22;51813;40.666;16.602;2022-09-19T00:05:44;22.50;42.30
65231;DHT22;51813;40.666;16.602;2022-09-19T00:08:10;22.50;42.50
65231;DHT22;51813;40.666;16.602;2022-09-19T00:10:41;22.40;42.50
65231;DHT22;51813;40.666;16.602;2022-09-19T00:13:08;22.50;43.00
65231;DHT22;51813;40.666;16.602;2022-09-19T00:15:46;22.40;43.70
65231;DHT22;51813;40.666;16.602;2022-09-19T00:18:12;22.40;42.80
65231;DHT22;51813;40.666;16.602;2022-09-19T00:20:44;22.50;42.70
65231;DHT22;51813;40.666;16.602;2022-09-19T00:23:11;22.40;42.60
65231;DHT22;51813;40.666;16.602;2022-09-19T00:26:07;22.40;42.70
65231;DHT22;51813;40.666;16.602;2022-09-19T00:28:34;22.50;42.30
65231;DHT22;51813;40.666;16.602;2022-09-19T00:31:00;22.50;42.40
65231;DHT22;51813;40.666;16.602;2022-09-19T00:33:29;22.50;42.50
65231;DHT22;51813;40.666;16.602;2022-09-19T00:35:56;22.40;42.90
65231;DHT22;51813;40.666;16.602;2022-09-19T00:38:24;22.40;42.90
65231;DHT22;51813;40.666;16.602;2022-09-19T00:40:50;22.40;42.80
65231;DHT22;51813;40.666;16.602;2022-09-19T00:43:17;22.40;42.90
65231;DHT22;51813;40.666;16.602;2022-09-19T00:45:44;22.40;42.50
65231;DHT22;51813;40.666;16.602;2022-09-19T00:48:12;22.50;43.30
65231;DHT22;51813;40.666;16.602;2022-09-19T00:50:39;22.40;42.70
65231;DHT22;51813;40.666;16.602;2022-09-19T00:53:13;22.50;42.50
65231;DHT22;51813;40.666;16.602;2022-09-19T00:55:41;22.50;42.30
65231;DHT22;51813;40.666;16.602;2022-09-19T00:58:14;22.50;42.30
65231;DHT22;51813;40.666;16.602;2022-09-19T01:00:41;22.50;42.60
65231;DHT22;51813;40.666;16.602;2022-09-19T01:03:07;22.40;42.80
65231;DHT22;51813;40.666;16.602;2022-09-19T01:06:10;22.40;42.90
65231;DHT22;51813;40.666;16.602;2022-09-19T01:18:04;22.40;42.60
65231;DHT22;51813;40.666;16.602;2022-09-19T01:26:19;22.50;42.20
65231;DHT22;51813;40.666;16.602;2022-09-19T01:31:35;22.40;42.60
65231;DHT22;51813;40.666;16.602;2022-09-19T01:36:43;22.40;42.90
65231;DHT22;51813;40.666;16.602;2022-09-19T01:39:12;22.40;42.50
65231;DHT22;51813;40.666;16.602;2022-09-19T01:41:47;22.40;42.70
65231;DHT22;51813;40.666;16.602;2022-09-19T01:44:17;22.40;42.70
65231;DHT22;51813;40.666;16.602;2022-09-19T01:51:47;22.50;42.20
65231;DHT22;51813;40.666;16.602;2022-09-19T02:00:09;22.40;42.80
65231;DHT22;51813;40.666;16.602;2022-09-19T02:05:38;22.40;42.60
65231;DHT22;51813;40.666;16.602;2022-09-19T02:08:18;22.40;42.80
65231;DHT22;51813;40.666;16.602;2022-09-19T02:10:55;22.40;42.50
65231;DHT22;51813;40.666;16.602;2022-09-19T02:13:27;22.40;42.40
65231;DHT22;51813;40.666;16.602;2022-09-19T02:16:04;22.50;42.20
65231;DHT22;51813;40.666;16.602;2022-09-19T02:18:43;22.40;42.30
65231;DHT22;51813;40.666;16.602;2022-09-19T02:21:14;22.40;42.60
65231;DHT22;51813;40.666;16.602;2022-09-19T02:23:48;22.40;42.70
65231;DHT22;51813;40.666;16.602;2022-09-19T02:26:18;22.30;42.80
65231;DHT22;51813;40.666;16.602;2022-09-19T02:28:47;22.40;42.70
65231;DHT22;51813;40.666;16.602;2022-09-19T02:31:15;22.40;43.00
65231;DHT22;51813;40.666;16.602;2022-09-19T02:33:42;22.30;42.80
65231;DHT22;51813;40.666;16.602;2022-09-19T02:38:59;22.40;42.50
65231;DHT22;51813;40.666;16.602;2022-09-19T02:41:33;22.40;42.20
65231;DHT22;51813;40.666;16.602;2022-09-19T02:44:13;22.40;42.10
65231;DHT22;51813;40.666;16.602;2022-09-19T02:49:35;22.30;42.50
65231;DHT22;51813;40.666;16.602;2022-09-19T02:52:11;22.40;42.90
65231;DHT22;51813;40.666;16.602;2022-09-19T02:54:46;22.30;42.70
65231;DHT22;51813;40.666;16.602;2022-09-19T02:57:15;22.30;43.10
65231;DHT22;51813;40.666;16.602;2022-09-19T02:59:45;22.40;42.90
65231;DHT22;51813;40.666;16.602;2022-09-19T03:02:19;22.30;43.00
65231;DHT22;51813;40.666;16.602;2022-09-19T03:04:51;22.40;42.50
65231;DHT22;51813;40.666;16.602;2022-09-19T03:07:28;22.40;42.20
65231;DHT22;51813;40.666;16.602;2022-09-19T03:10:06;22.40;42.20
65231;DHT22;51813;40.666;16.602;2022-09-19T03:15:34;22.40;42.70
65231;DHT22;51813;40.666;16.602;2022-09-19T03:18:07;22.40;42.80
65231;DHT22;51813;40.666;16.602;2022-09-19T03:20:37;22.40;42.90
65231;DHT22;51813;40.666;16.602;2022-09-19T03:23:05;22.30;42.80
65231;DHT22;51813;40.666;16.602;2022-09-19T03:25:31;22.30;42.70
65231;DHT22;51813;40.666;16.602;2022-09-19T03:27:57;22.30;42.50
65231;DHT22;51813;40.666;16.602;2022-09-19T03:30:23;22.30;42.40
65231;DHT22;51813;40.666;16.602;2022-09-19T03:32:49;22.40;42.30
65231;DHT22;51813;40.666;16.602;2022-09-19T03:35:15;22.40;42.10
65231;DHT22;51813;40.666;16.602;2022-09-19T03:37:41;22.40;42.50
65231;DHT22;51813;40.666;16.602;2022-09-19T03:40:07;22.40;42.50
65231;DHT22;51813;40.666;16.602;2022-09-19T03:42:33;22.30;43.30
65231;DHT22;51813;40.666;16.602;2022-09-19T03:45:04;22.30;42.80
65231;DHT22;51813;40.666;16.602;2022-09-19T03:47:30;22.30;42.90
65231;DHT22;51813;40.666;16.602;2022-09-19T03:49:56;22.30;42.60
65231;DHT22;51813;40.666;16.602;2022-09-19T03:52:24;22.30;42.60
65231;DHT22;51813;40.666;16.602;2022-09-19T03:54:51;22.30;43.10
65231;DHT22;51813;40.666;16.602;2022-09-19T03:57:17;22.30;42.40
65231;DHT22;51813;40.666;16.602;2022-09-19T03:59:43;22.40;42.40
65231;DHT22;51813;40.666;16.602;2022-09-19T04:02:10;22.40;42.40
65231;DHT22;51813;40.666;16.602;2022-09-19T04:04:36;22.30;42.50
65231;DHT22;51813;40.666;16.602;2022-09-19T04:07:03;22.30;42.70
65231;DHT22;51813;40.666;16.602;2022-09-19T04:09:29;22.30;42.90
65231;DHT22;51813;40.666;16.602;2022-09-19T04:11:55;22.30;42.90
65231;DHT22;51813;40.666;16.602;2022-09-19T04:14:23;22.30;43.10
65231;DHT22;51813;40.666;16.602;2022-09-19T04:16:49;22.30;43.30
65231;DHT22;51813;40.666;16.602;2022-09-19T04:19:15;22.30;43.00
65231;DHT22;51813;40.666;16.602;2022-09-19T04:21:41;22.30;43.20
65231;DHT22;51813;40.666;16.602;2022-09-19T04:24:12;22.30;43.10
65231;DHT22;51813;40.666;16.602;2022-09-19T04:26:38;22.40;42.50
65231;DHT22;51813;40.666;16.602;2022-09-19T04:29:04;22.40;42.50
65231;DHT22;51813;40.666;16.602;2022-09-19T04:31:32;22.40;43.50
65231;DHT22;51813;40.666;16.602;2022-09-19T04:34:04;22.30;42.80
65231;DHT22;51813;40.666;16.602;2022-09-19T04:36:30;22.40;43.00
65231;DHT22;51813;40.666;16.602;2022-09-19T04:38:57;22.40;43.00
65231;DHT22;51813;40.666;16.602;2022-09-19T04:41:31;22.40;43.00
65231;DHT22;51813;40.666;16.602;2022-09-19T04:44:00;22.30;43.40
65231;DHT22;51813;40.666;16.602;2022-09-19T04:46:26;22.30;43.50
65231;DHT22;51813;40.666;16.602;2022-09-19T04:48:55;22.40;43.70
65231;DHT22;51813;40.666;16.602;2022-09-19T04:51:21;22.40;43.00
65231;DHT22;51813;40.666;16.602;2022-09-19T04:53:48;22.40;42.90
65231;DHT22;51813;40.666;16.602;2022-09-19T04:56:13;22.40;43.10
65231;DHT22;51813;40.666;16.602;2022-09-19T04:58:39;22.40;43.20
65231;DHT22;51813;40.666;16.602;2022-09-19T05:01:06;22.30;43.20
65231;DHT22;51813;40.666;16.602;2022-09-19T05:03:32;22.40;43.40
65231;DHT22;51813;40.666;16.602;2022-09-19T05:06:01;22.40;43.60
65231;DHT22;51813;40.666;16.602;2022-09-19T05:08:30;22.40;43.50
65231;DHT22;51813;40.666;16.602;2022-09-19T05:11:02;22.40;43.60
65231;DHT22;51813;40.666;16.602;2022-09-19T05:13:31;22.40;44.00
65231;DHT22;51813;40.666;16.602;2022-09-19T05:15:58;22.30;43.60
65231;DHT22;51813;40.666;16.602;2022-09-19T05:18:26;22.40;43.20
65231;DHT22;51813;40.666;16.602;2022-09-19T05:20:53;22.40;44.00
65231;DHT22;51813;40.666;16.602;2022-09-19T05:23:24;22.40;43.20
65231;DHT22;51813;40.666;16.602;2022-09-19T05:25:50;22.30;43.30
65231;DHT22;51813;40.666;16.602;2022-09-19T05:28:20;22.40;43.60
65231;DHT22;51813;40.666;16.602;2022-09-19T05:30:48;22.30;43.80
65231;DHT22;51813;40.666;16.602;2022-09-19T05:33:20;22.40;43.50
65231;DHT22;51813;40.666;16.602;2022-09-19T05:35:50;22.40;43.80
65231;DHT22;51813;40.666;16.602;2022-09-19T05:38:16;22.30;44.10
65231;DHT22;51813;40.666;16.602;2022-09-19T05:40:42;22.30;44.30
65231;DHT22;51813;40.666;16.602;2022-09-19T05:43:08;22.30;43.80
65231;DHT22;51813;40.666;16.602;2022-09-19T05:45:34;22.40;44.20
65231;DHT22;51813;40.666;16.602;2022-09-19T05:48:01;22.40;43.50
65231;DHT22;51813;40.666;16.602;2022-09-19T05:50:27;22.40;43.50
65231;DHT22;51813;40.666;16.602;2022-09-19T05:52:53;22.40;43.70
65231;DHT22;51813;40.666;16.602;2022-09-19T05:55:37;22.40;44.00
65231;DHT22;51813;40.666;16.602;2022-09-19T05:58:03;22.40;44.10
65231;DHT22;51813;40.666;16.602;2022-09-19T06:00:31;22.40;44.20
65231;DHT22;51813;40.666;16.602;2022-09-19T06:02:59;22.40;44.30
65231;DHT22;51813;40.666;16.602;2022-09-19T06:05:30;22.40;44.40
65231;DHT22;51813;40.666;16.602;2022-09-19T06:07:59;22.40;44.70
65231;DHT22;51813;40.666;16.602;2022-09-19T06:10:26;22.30;44.20
65231;DHT22;51813;40.666;16.602;2022-09-19T06:12:55;22.40;44.20
65231;DHT22;51813;40.666;16.602;2022-09-19T06:15:21;22.40;44.30
65231;DHT22;51813;40.666;16.602;2022-09-19T06:17:54;22.40;44.20
65231;DHT22;51813;40.666;16.602;2022-09-19T06:20:19;22.40;44.50
65231;DHT22;51813;40.666;16.602;2022-09-19T06:22:45;22.40;44.60
65231;DHT22;51813;40.666;16.602;2022-09-19T06:25:11;22.40;44.70
65231;DHT22;51813;40.666;16.602;2022-09-19T06:27:38;22.40;44.70
65231;DHT22;51813;40.666;16.602;2022-09-19T06:30:05;22.40;44.60
65231;DHT22;51813;40.666;16.602;2022-09-19T06:32:31;22.40;44.70
65231;DHT22;51813;40.666;16.602;2022-09-19T06:34:57;22.40;44.80
65231;DHT22;51813;40.666;16.602;2022-09-19T06:37:23;22.40;44.80
65231;DHT22;51813;40.666;16.602;2022-09-19T06:39:48;22.50;44.60
65231;DHT22;51813;40.666;16.602;2022-09-19T06:42:14;22.40;44.70
65231;DHT22;51813;40.666;16.602;2022-09-19T06:44:40;22.40;44.90
65231;DHT22;51813;40.666;16.602;2022-09-19T06:47:06;22.40;44.90
65231;DHT22;51813;40.666;16.602;2022-09-19T06:49:32;22.40;45.00
65231;DHT22;51813;40.666;16.602;2022-09-19T06:51:58;22.40;45.10
65231;DHT22;51813;40.666;16.602;2022-09-19T06:54:24;22.40;45.20
65231;DHT22;51813;40.666;16.602;2022-09-19T06:56:50;22.50;45.30
65231;DHT22;51813;40.666;16.602;2022-09-19T06:59:17;22.50;45.30
65231;DHT22;51813;40.666;16.602;2022-09-19T07:01:44;22.50;45.60
65231;DHT22;51813;40.666;16.602;2022-09-19T07:04:11;22.50;45.40
65231;DHT22;51813;40.666;16.602;2022-09-19T07:06:37;22.50;45.40
65231;DHT22;51813;40.666;16.602;2022-09-19T07:09:03;22.50;45.40
65231;DHT22;51813;40.666;16.602;2022-09-19T07:11:30;22.40;45.50
65231;DHT22;51813;40.666;16.602;2022-09-19T07:13:56;22.40;45.60
65231;DHT22;51813;40.666;16.602;2022-09-19T07:16:22;22.40;45.70
65231;DHT22;51813;40.666;16.602;2022-09-19T07:18:48;22.40;45.80
65231;DHT22;51813;40.666;16.602;2022-09-19T07:21:14;22.50;45.80
65231;DHT22;51813;40.666;16.602;2022-09-19T07:23:39;22.40;45.90
65231;DHT22;51813;40.666;16.602;2022-09-19T07:26:05;22.40;46.10
65231;DHT22;51813;40.666;16.602;2022-09-19T07:28:31;22.40;46.10
65231;DHT22;51813;40.666;16.602;2022-09-19T07:30:58;22.50;46.00
65231;DHT22;51813;40.666;16.602;2022-09-19T07:33:24;22.50;45.80
65231;DHT22;51813;40.666;16.602;2022-09-19T07:35:53;22.50;45.80
65231;DHT22;51813;40.666;16.602;2022-09-19T07:38:20;22.60;45.90
65231;DHT22;51813;40.666;16.602;2022-09-19T07:40:47;22.50;45.90
65231;DHT22;51813;40.666;16.602;2022-09-19T07:43:14;22.50;46.00
65231;DHT22;51813;40.666;16.602;2022-09-19T07:45:46;22.60;46.10
65231;DHT22;51813;40.666;16.602;2022-09-19T07:48:12;22.50;46.20
65231;DHT22;51813;40.666;16.602;2022-09-19T07:50:38;22.50;46.60
65231;DHT22;51813;40.666;16.602;2022-09-19T07:53:10;22.50;46.70
65231;DHT22;51813;40.666;16.602;2022-09-19T07:55:36;22.60;46.20
65231;DHT22;51813;40.666;16.602;2022-09-19T07:58:03;22.60;46.30
65231;DHT22;51813;40.666;16.602;2022-09-19T08:00:30;22.60;46.10
65231;DHT22;51813;40.666;16.602;2022-09-19T08:02:58;22.50;46.30
65231;DHT22;51813;40.666;16.602;2022-09-19T08:05:25;22.50;46.50
65231;DHT22;51813;40.666;16.602;2022-09-19T08:07:51;22.50;46.70
65231;DHT22;51813;40.666;16.602;2022-09-19T08:10:18;22.50;46.50
65231;DHT22;51813;40.666;16.602;2022-09-19T08:12:44;22.60;46.60
65231;DHT22;51813;40.666;16.602;2022-09-19T08:15:11;22.60;46.80
65231;DHT22;51813;40.666;16.602;2022-09-19T08:18:02;22.60;46.90
65231;DHT22;51813;40.666;16.602;2022-09-19T08:20:29;22.60;46.90
65231;DHT22;51813;40.666;16.602;2022-09-19T08:23:09;22.70;46.80
65231;DHT22;51813;40.666;16.602;2022-09-19T08:25:37;22.70;46.50
65231;DHT22;51813;40.666;16.602;2022-09-19T08:28:09;22.70;46.50
65231;DHT22;51813;40.666;16.602;2022-09-19T08:30:35;22.70;46.50
65231;DHT22;51813;40.666;16.602;2022-09-19T08:33:02;22.70;46.70
65231;DHT22;51813;40.666;16.602;2022-09-19T08:35:29;22.70;46.80
65231;DHT22;51813;40.666;16.602;2022-09-19T08:37:57;22.70;46.90
65231;DHT22;51813;40.666;16.602;2022-09-19T08:40:29;22.70;46.80
65231;DHT22;51813;40.666;16.602;2022-09-19T08:48:46;22.60;47.00
65231;DHT22;51813;40.666;16.602;2022-09-19T08:51:26;22.80;46.60
65231;DHT22;51813;40.666;16.602;2022-09-19T08:54:03;22.80;46.80
65231;DHT22;51813;40.666;16.602;2022-09-19T08:56:31;22.70;46.60
65231;DHT22;51813;40.666;16.602;2022-09-19T08:59:02;22.70;46.70
65231;DHT22;51813;40.666;16.602;2022-09-19T09:01:34;22.70;46.70
65231;DHT22;51813;40.666;16.602;2022-09-19T09:04:28;22.70;46.70
65231;DHT22;51813;40.666;16.602;2022-09-19T09:07:47;22.70;47.30
65231;DHT22;51813;40.666;16.602;2022-09-19T09:13:13;22.70;47.00
65231;DHT22;51813;40.666;16.602;2022-09-19T09:21:58;22.80;47.50
65231;DHT22;51813;40.666;16.602;2022-09-19T09:24:14;22.80;47.20
65231;DHT22;51813;40.666;16.602;2022-09-19T09:26:42;22.80;47.20
65231;DHT22;51813;40.666;16.602;2022-09-19T09:29:17;22.70;47.20
65231;DHT22;51813;40.666;16.602;2022-09-19T09:34:40;22.80;47.20
65231;DHT22;51813;40.666;16.602;2022-09-19T09:37:31;22.80;47.20
65231;DHT22;51813;40.666;16.602;2022-09-19T09:40:17;22.70;47.10
65231;DHT22;51813;40.666;16.602;2022-09-19T09:43:06;22.80;47.10
65231;DHT22;51813;40.666;16.602;2022-09-19T09:45:42;22.80;47.10
65231;DHT22;51813;40.666;16.602;2022-09-19T09:54:18;22.80;46.70
65231;DHT22;51813;40.666;16.602;2022-09-19T09:57:06;22.80;46.70
65231;DHT22;51813;40.666;16.602;2022-09-19T10:00:10;22.80;46.70
65231;DHT22;51813;40.666;16.602;2022-09-19T10:03:06;22.80;46.90
65231;DHT22;51813;40.666;16.602;2022-09-19T10:08:42;22.80;46.90
65231;DHT22;51813;40.666;16.602;2022-09-19T10:11:18;22.80;46.90
65231;DHT22;51813;40.666;16.602;2022-09-19T10:14:02;22.90;46.90
65231;DHT22;51813;40.666;16.602;2022-09-19T10:16:29;22.90;46.90
65231;DHT22;51813;40.666;16.602;2022-09-19T10:19:06;22.90;46.90
65231;DHT22;51813;40.666;16.602;2022-09-19T10:21:37;22.90;46.90
65231;DHT22;51813;40.666;16.602;2022-09-19T10:24:40;22.90;47.10
65231;DHT22;51813;40.666;16.602;2022-09-19T10:27:27;22.90;47.30
65231;DHT22;51813;40.666;16.602;2022-09-19T10:30:14;22.90;47.40
65231;DHT22;51813;40.666;16.602;2022-09-19T10:32:44;22.90;47.50
65231;DHT22;51813;40.666;16.602;2022-09-19T10:38:11;22.90;47.00
65231;DHT22;51813;40.666;16.602;2022-09-19T10:41:14;22.90;46.90
65231;DHT22;51813;40.666;16.602;2022-09-19T10:43:49;22.90;46.70
65231;DHT22;51813;40.666;16.602;2022-09-19T10:46:20;22.90;46.80
65231;DHT22;51813;40.666;16.602;2022-09-19T10:48:52;22.90;46.90
65231;DHT22;51813;40.666;16.602;2022-09-19T10:51:19;22.90;46.70
65231;DHT22;51813;40.666;16.602;2022-09-19T10:53:51;22.90;46.80
65231;DHT22;51813;40.666;16.602;2022-09-19T10:56:29;22.90;46.50
65231;DHT22;51813;40.666;16.602;2022-09-19T11:01:39;22.80;46.00
65231;DHT22;51813;40.666;16.602;2022-09-19T11:07:02;23.00;45.90
65231;DHT22;51813;40.666;16.602;2022-09-19T11:09:35;22.90;45.60
65231;DHT22;51813;40.666;16.602;2022-09-19T11:12:10;23.00;45.80
65231;DHT22;51813;40.666;16.602;2022-09-19T11:14:40;22.90;45.60
65231;DHT22;51813;40.666;16.602;2022-09-19T11:20:22;22.90;45.70
65231;DHT22;51813;40.666;16.602;2022-09-19T11:26:01;22.90;45.80
65231;DHT22;51813;40.666;16.602;2022-09-19T11:32:00;23.00;45.90
65231;DHT22;51813;40.666;16.602;2022-09-19T11:45:59;23.00;45.70
65231;DHT22;51813;40.666;16.602;2022-09-19T12:04:59;23.00;45.90
65231;DHT22;51813;40.666;16.602;2022-09-19T12:08:06;23.00;45.90
65231;DHT22;51813;40.666;16.602;2022-09-19T12:11:00;23.00;46.00
65231;DHT22;51813;40.666;16.602;2022-09-19T12:13:41;23.00;45.40
65231;DHT22;51813;40.666;16.602;2022-09-19T12:16:17;23.00;45.80
65231;DHT22;51813;40.666;16.602;2022-09-19T12:18:50;23.00;45.90
65231;DHT22;51813;40.666;16.602;2022-09-19T12:21:21;23.00;45.90
65231;DHT22;51813;40.666;16.602;2022-09-19T12:23:57;23.10;45.50
65231;DHT22;51813;40.666;16.602;2022-09-19T12:27:09;23.10;45.20
65231;DHT22;51813;40.666;16.602;2022-09-19T12:29:52;23.00;45.60
65231;DHT22;51813;40.666;16.602;2022-09-19T12:32:41;23.00;44.70
65231;DHT22;51813;40.666;16.602;2022-09-19T12:37:46;23.00;45.00
65231;DHT22;51813;40.666;16.602;2022-09-19T12:43:23;23.00;45.00
65231;DHT22;51813;40.666;16.602;2022-09-19T12:45:55;23.00;44.10
65231;DHT22;51813;40.666;16.602;2022-09-19T12:48:55;23.00;45.80
65231;DHT22;51813;40.666;16.602;2022-09-19T12:51:39;23.10;44.90
65231;DHT22;51813;40.666;16.602;2022-09-19T12:59:52;23.10;45.20
65231;DHT22;51813;40.666;16.602;2022-09-19T13:02:27;23.10;45.40
65231;DHT22;51813;40.666;16.602;2022-09-19T13:07:34;23.10;45.90
65231;DHT22;51813;40.666;16.602;2022-09-19T13:10:22;23.10;45.30
65231;DHT22;51813;40.666;16.602;2022-09-19T13:15:49;23.10;44.00
65231;DHT22;51813;40.666;16.602;2022-09-19T13:18:16;23.10;42.90
65231;DHT22;51813;40.666;16.602;2022-09-19T13:21:02;23.20;42.70
65231;DHT22;51813;40.666;16.602;2022-09-19T13:23:55;23.30;41.50
65231;DHT22;51813;40.666;16.602;2022-09-19T13:26:24;23.30;41.30
65231;DHT22;51813;40.666;16.602;2022-09-19T13:28:52;23.40;41.40
65231;DHT22;51813;40.666;16.602;2022-09-19T13:31:20;23.40;41.90
65231;DHT22;51813;40.666;16.602;2022-09-19T13:33:50;23.50;41.70
65231;DHT22;51813;40.666;16.602;2022-09-19T13:38:50;23.60;38.60
65231;DHT22;51813;40.666;16.602;2022-09-19T13:46:42;23.80;38.90
65231;DHT22;51813;40.666;16.602;2022-09-19T13:49:37;23.80;39.90
65231;DHT22;51813;40.666;16.602;2022-09-19T13:52:09;23.90;40.20
65231;DHT22;51813;40.666;16.602;2022-09-19T13:54:59;23.90;41.30
65231;DHT22;51813;40.666;16.602;2022-09-19T13:57:29;23.90;42.30
65231;DHT22;51813;40.666;16.602;2022-09-19T13:59:59;23.90;43.10
65231;DHT22;51813;40.666;16.602;2022-09-19T14:02:36;23.90;44.00
65231;DHT22;51813;40.666;16.602;2022-09-19T14:05:18;23.90;44.80
65231;DHT22;51813;40.666;16.602;2022-09-19T14:07:54;24.00;45.50
65231;DHT22;51813;40.666;16.602;2022-09-19T14:12:52;23.90;45.30
65231;DHT22;51813;40.666;16.602;2022-09-19T14:18:02;23.90;45.30
65231;DHT22;51813;40.666;16.602;2022-09-19T14:20:51;23.90;45.20
65231;DHT22;51813;40.666;16.602;2022-09-19T14:23:21;23.90;45.50
65231;DHT22;51813;40.666;16.602;2022-09-19T14:53:47;23.90;46.90
65231;DHT22;51813;40.666;16.602;2022-09-19T14:56:16;23.90;47.20
65231;DHT22;51813;40.666;16.602;2022-09-19T14:58:50;23.90;47.40
65231;DHT22;51813;40.666;16.602;2022-09-19T15:01:23;24.00;47.40
65231;DHT22;51813;40.666;16.602;2022-09-19T15:06:36;24.00;47.60
65231;DHT22;51813;40.666;16.602;2022-09-19T15:09:18;24.00;47.80
65231;DHT22;51813;40.666;16.602;2022-09-19T15:11:51;24.10;47.80
65231;DHT22;51813;40.666;16.602;2022-09-19T15:14:22;24.10;47.70
65231;DHT22;51813;40.666;16.602;2022-09-19T15:19:45;24.10;47.80
65231;DHT22;51813;40.666;16.602;2022-09-19T15:22:33;24.10;48.10
65231;DHT22;51813;40.666;16.602;2022-09-19T15:25:23;24.10;48.20
65231;DHT22;51813;40.666;16.602;2022-09-19T15:27:58;24.10;48.10
65231;DHT22;51813;40.666;16.602;2022-09-19T15:30:32;24.20;48.50
65231;DHT22;51813;40.666;16.602;2022-09-19T15:32:59;24.20;48.50
65231;DHT22;51813;40.666;16.602;2022-09-19T15:35:26;24.10;49.00
65231;DHT22;51813;40.666;16.602;2022-09-19T15:38:01;24.10;48.30
65231;DHT22;51813;40.666;16.602;2022-09-19T15:40:29;24.10;48.40
65231;DHT22;51813;40.666;16.602;2022-09-19T15:42:57;24.10;48.40
65231;DHT22;51813;40.666;16.602;2022-09-19T15:47:57;24.10;48.00
65231;DHT22;51813;40.666;16.602;2022-09-19T15:50:26;24.10;47.90
65231;DHT22;51813;40.666;16.602;2022-09-19T15:52:52;24.20;47.80
65231;DHT22;51813;40.666;16.602;2022-09-19T15:55:23;24.10;47.90
65231;DHT22;51813;40.666;16.602;2022-09-19T15:57:56;24.10;47.90
65231;DHT22;51813;40.666;16.602;2022-09-19T16:00:25;24.10;47.90
65231;DHT22;51813;40.666;16.602;2022-09-19T16:02:56;24.10;48.00
65231;DHT22;51813;40.666;16.602;2022-09-19T16:05:25;24.10;47.80
65231;DHT22;51813;40.666;16.602;2022-09-19T16:08:00;24.00;48.10
65231;DHT22;51813;40.666;16.602;2022-09-19T16:10:47;24.00;47.90
65231;DHT22;51813;40.666;16.602;2022-09-19T16:13:39;24.10;47.80
65231;DHT22;51813;40.666;16.602;2022-09-19T16:16:26;24.10;47.90
65231;DHT22;51813;40.666;16.602;2022-09-19T16:18:52;24.10;47.70
65231;DHT22;51813;40.666;16.602;2022-09-19T16:21:22;24.00;47.70
65231;DHT22;51813;40.666;16.602;2022-09-19T16:23:50;24.00;47.70
65231;DHT22;51813;40.666;16.602;2022-09-19T16:26:19;24.00;47.60
65231;DHT22;51813;40.666;16.602;2022-09-19T16:28:53;24.00;47.60
65231;DHT22;51813;40.666;16.602;2022-09-19T16:31:34;24.00;47.50
65231;DHT22;51813;40.666;16.602;2022-09-19T16:34:17;24.00;47.70
65231;DHT22;51813;40.666;16.602;2022-09-19T16:36:48;24.00;47.60
65231;DHT22;51813;40.666;16.602;2022-09-19T16:39:15;24.00;47.50
65231;DHT22;51813;40.666;16.602;2022-09-19T16:44:50;24.00;47.40
65231;DHT22;51813;40.666;16.602;2022-09-19T16:47:24;24.00;47.30
65231;DHT22;51813;40.666;16.602;2022-09-19T16:49:51;24.00;47.40
65231;DHT22;51813;40.666;16.602;2022-09-19T16:54:45;24.00;46.80
65231;DHT22;51813;40.666;16.602;2022-09-19T16:57:13;23.90;46.70
65231;DHT22;51813;40.666;16.602;2022-09-19T16:59:43;23.90;46.50
65231;DHT22;51813;40.666;16.602;2022-09-19T17:02:20;23.90;46.50
65231;DHT22;51813;40.666;16.602;2022-09-19T17:04:46;24.00;46.20
65231;DHT22;51813;40.666;16.602;2022-09-19T17:07:12;24.10;46.20
65231;DHT22;51813;40.666;16.602;2022-09-19T17:09:38;24.10;46.40
65231;DHT22;51813;40.666;16.602;2022-09-19T17:12:04;24.00;46.30
65231;DHT22;51813;40.666;16.602;2022-09-19T17:14:30;24.00;46.30
65231;DHT22;51813;40.666;16.602;2022-09-19T17:16:55;23.90;46.50
65231;DHT22;51813;40.666;16.602;2022-09-19T17:19:21;23.90;46.70
65231;DHT22;51813;40.666;16.602;2022-09-19T17:21:47;23.90;47.10
65231;DHT22;51813;40.666;16.602;2022-09-19T17:24:13;23.90;47.00
65231;DHT22;51813;40.666;16.602;2022-09-19T17:26:40;23.90;47.30
65231;DHT22;51813;40.666;16.602;2022-09-19T17:29:06;24.00;48.20
65231;DHT22;51813;40.666;16.602;2022-09-19T17:31:32;24.00;47.50
65231;DHT22;51813;40.666;16.602;2022-09-19T17:33:58;24.00;47.50
65231;DHT22;51813;40.666;16.602;2022-09-19T17:36:24;24.10;47.30
65231;DHT22;51813;40.666;16.602;2022-09-19T17:38:50;23.90;47.50
65231;DHT22;51813;40.666;16.602;2022-09-19T17:41:16;23.90;47.60
65231;DHT22;51813;40.666;16.602;2022-09-19T17:43:42;23.80;47.50
65231;DHT22;51813;40.666;16.602;2022-09-19T17:46:11;23.80;47.70
65231;DHT22;51813;40.666;16.602;2022-09-19T17:48:37;23.80;47.50
65231;DHT22;51813;40.666;16.602;2022-09-19T17:51:29;23.70;47.70
65231;DHT22;51813;40.666;16.602;2022-09-19T17:53:55;23.80;47.60
65231;DHT22;51813;40.666;16.602;2022-09-19T17:56:23;23.80;47.60
65231;DHT22;51813;40.666;16.602;2022-09-19T17:58:58;23.70;47.90
65231;DHT22;51813;40.666;16.602;2022-09-19T18:01:26;23.70;48.10
65231;DHT22;51813;40.666;16.602;2022-09-19T18:04:11;23.60;48.30
65231;DHT22;51813;40.666;16.602;2022-09-19T18:06:38;23.50;48.50
65231;DHT22;51813;40.666;16.602;2022-09-19T18:09:06;23.50;48.80
65231;DHT22;51813;40.666;16.602;2022-09-19T18:11:33;23.40;48.90
65231;DHT22;51813;40.666;16.602;2022-09-19T18:13:59;23.30;49.10
65231;DHT22;51813;40.666;16.602;2022-09-19T18:16:28;23.30;49.20
65231;DHT22;51813;40.666;16.602;2022-09-19T18:18:54;23.20;49.30
65231;DHT22;51813;40.666;16.602;2022-09-19T18:21:20;23.20;49.40
65231;DHT22;51813;40.666;16.602;2022-09-19T18:23:45;23.20;49.60
65231;DHT22;51813;40.666;16.602;2022-09-19T18:26:16;23.20;49.60
65231;DHT22;51813;40.666;16.602;2022-09-19T18:28:43;23.10;49.80
65231;DHT22;51813;40.666;16.602;2022-09-19T18:31:10;23.10;50.00
65231;DHT22;51813;40.666;16.602;2022-09-19T18:33:42;23.00;50.10
65231;DHT22;51813;40.666;16.602;2022-09-19T18:36:15;23.00;50.30
65231;DHT22;51813;40.666;16.602;2022-09-19T18:38:41;23.00;50.50
65231;DHT22;51813;40.666;16.602;2022-09-19T18:41:08;22.90;50.70
65231;DHT22;51813;40.666;16.602;2022-09-19T18:43:35;22.90;50.80
65231;DHT22;51813;40.666;16.602;2022-09-19T18:46:07;22.90;50.70
65231;DHT22;51813;40.666;16.602;2022-09-19T18:48:33;23.00;50.70